createdAt,value
2023-01-22T00:03:56.626Z,99722.1
2023-01-22T00:09:47.174Z,99732.2
2023-01-22T00:15:57.617Z,99729.1
2023-01-22T00:21:50.160Z,99733.1
2023-01-22T00:27:25.509Z,99751.1
2023-01-22T00:33:27.985Z,99749.7
2023-01-22T00:39:03.357Z,99740.4
2023-01-22T00:44:45.771Z,99728
2023-01-22T00:50:31.168Z,99729.3
2023-01-22T00:56:09.380Z,99731
2023-01-22T01:01:45.275Z,99727.7
2023-01-22T01:07:21.250Z,99721.4
2023-01-22T01:12:58.372Z,99718.4
2023-01-22T01:18:34.340Z,99714.3
2023-01-22T01:24:21.012Z,99718.6
2023-01-22T01:30:04.763Z,99722.4
2023-01-22T01:35:48.876Z,99719.8
2023-01-22T01:41:30.157Z,99724
2023-01-22T01:47:27.851Z,99732.3
2023-01-22T01:53:05.303Z,99735.7
2023-01-22T01:58:50.256Z,99736.1
2023-01-22T02:04:26.200Z,99730.6
2023-01-22T02:10:21.372Z,99735.7
2023-01-22T02:16:00.086Z,99738.7
2023-01-22T02:21:40.846Z,99741.4
2023-01-22T02:27:21.093Z,99761.9
2023-01-22T02:32:59.313Z,99776.7
2023-01-22T02:38:36.792Z,99785.6
2023-01-22T02:44:22.893Z,99788.3
2023-01-22T02:51:36.686Z,99789.3
2023-01-22T02:57:19.831Z,99786.6
2023-01-22T03:03:01.436Z,99777.5
2023-01-22T03:08:36.363Z,99777.7
2023-01-22T03:14:17.702Z,99774.8
2023-01-22T03:19:55.222Z,99777.6
2023-01-22T03:25:53.418Z,99784.1
2023-01-22T03:31:38.945Z,99792.1
2023-01-22T03:37:16.077Z,99803.7
2023-01-22T03:42:59.925Z,99812.5
2023-01-22T03:49:06.401Z,99806.2
2023-01-22T03:54:41.203Z,99795.6
2023-01-22T04:00:21.068Z,99795.1
2023-01-22T04:05:57.404Z,99792.1
2023-01-22T04:11:33.694Z,99788.1
2023-01-22T04:17:08.627Z,99789.2
2023-01-22T04:23:31.446Z,99791
2023-01-22T04:29:25.432Z,99790.1
2023-01-22T04:35:01.606Z,99788.6
2023-01-22T04:40:39.962Z,99787.7
2023-01-22T04:46:16.935Z,99790.4
2023-01-22T04:51:53.238Z,99802.1
2023-01-22T04:57:28.799Z,99798.8
2023-01-22T05:03:05.076Z,99797.1
2023-01-22T05:08:47.925Z,99791.3
2023-01-22T05:14:23.833Z,99794.6
2023-01-22T05:20:08.310Z,99810.6
2023-01-22T05:25:54.589Z,99822.1
2023-01-22T05:31:59.359Z,99826.6
2023-01-22T05:37:46.404Z,99819.8
2023-01-22T05:43:24.707Z,99825.7
2023-01-22T05:49:07.929Z,99846.5
2023-01-22T05:54:44.028Z,99841.6
2023-01-22T06:00:22.902Z,99832.2
2023-01-22T06:05:58.604Z,99833.4
2023-01-22T06:11:37.330Z,99848.5
2023-01-22T06:17:15.956Z,99846.8
2023-01-22T06:22:52.985Z,99858
2023-01-22T06:28:34.508Z,99860.2
2023-01-22T06:34:20.890Z,99858.4
2023-01-22T06:40:39.527Z,99859.2
2023-01-22T06:46:15.028Z,99867.9
2023-01-22T06:51:58.613Z,99869
2023-01-22T06:57:48.738Z,99867.3
2023-01-22T07:03:48.590Z,99862.9
2023-01-22T07:09:39.315Z,99869
2023-01-22T07:15:15.395Z,99853.6
2023-01-22T07:21:15.323Z,99857.9
2023-01-22T07:26:55.995Z,99862.1
2023-01-22T07:32:32.833Z,99852.4
2023-01-22T07:38:08.852Z,99855.7
2023-01-22T07:43:45.945Z,99843
2023-01-22T07:49:22.899Z,99847.2
2023-01-22T07:54:58.249Z,99860.1
2023-01-22T08:00:42.294Z,99859.5
2023-01-22T08:06:28.052Z,99854.2
2023-01-22T08:12:18.980Z,99855.6
2023-01-22T08:18:41.237Z,99863.1
2023-01-22T08:24:43.869Z,99874.6
2023-01-22T08:30:23.071Z,99878.5
2023-01-22T08:36:03.161Z,99900.9
2023-01-22T08:42:01.483Z,99905.6
2023-01-22T08:47:37.812Z,99909.1
2023-01-22T08:53:14.236Z,99913.4
2023-01-22T09:00:01.210Z,99928.2
2023-01-22T09:05:37.485Z,99932.8
2023-01-22T09:11:13.774Z,99934.5
2023-01-22T09:16:58.573Z,99937.9
2023-01-22T09:22:34.527Z,99943.1
2023-01-22T09:28:10.152Z,99949.2
2023-01-22T09:33:45.600Z,99950.1
2023-01-22T09:39:24.821Z,99946
2023-01-22T09:45:03.363Z,99951.8
2023-01-22T09:50:42.446Z,99943.4
2023-01-22T09:56:17.620Z,99936.1
2023-01-22T10:01:54.176Z,99938.2
2023-01-22T10:07:30.094Z,99945.7
2023-01-22T10:13:05.920Z,99953.8
2023-01-22T10:18:46.981Z,99956.2
2023-01-22T10:24:33.690Z,99958.7
2023-01-22T10:30:09.960Z,99963.9
2023-01-22T10:36:07.086Z,99973.3
2023-01-22T10:41:51.983Z,99977.7
2023-01-22T10:47:52.186Z,99975.1
2023-01-22T10:53:25.459Z,99980.1
2023-01-22T10:59:02.897Z,99983.5
2023-01-22T11:04:47.633Z,99983.1
2023-01-22T11:10:36.473Z,99985.8
2023-01-22T11:16:19.829Z,99974.9
2023-01-22T11:21:58.724Z,99970.6
2023-01-22T11:27:36.798Z,99952.5
2023-01-22T11:33:21.909Z,99951.5
2023-01-22T11:38:57.238Z,99959.5
2023-01-22T11:44:34.251Z,99952.6
2023-01-22T11:50:15.759Z,99938.7
2023-01-22T11:55:54.715Z,99937.1
2023-01-22T12:01:31.522Z,99924.6
2023-01-22T12:07:21.133Z,99912.8
2023-01-22T12:13:08.308Z,99915.7
2023-01-22T12:18:49.563Z,99902.8
2023-01-22T12:25:05.601Z,99895.1
2023-01-22T12:30:42.182Z,99891.3
2023-01-22T12:36:22.617Z,99899.6
2023-01-22T12:41:57.840Z,99895.1
2023-01-22T12:47:33.785Z,99874.3
2023-01-22T12:53:10.339Z,99873.7
2023-01-22T12:58:45.769Z,99869.4
2023-01-22T13:04:30.647Z,99873.2
2023-01-22T13:10:06.606Z,99876.9
2023-01-22T13:15:41.991Z,99871.8
2023-01-22T13:21:39.979Z,99874.8
2023-01-22T13:27:22.026Z,99870.4
2023-01-22T13:33:27.412Z,99859.4
2023-01-22T13:39:33.660Z,99863.3
2023-01-22T13:45:15.867Z,99863
2023-01-22T13:50:55.279Z,99856.7
2023-01-22T13:56:31.411Z,99862.5
2023-01-22T14:02:07.648Z,99865.9
2023-01-22T14:07:44.131Z,99860.4
2023-01-22T14:13:41.161Z,99861.6
2023-01-22T14:19:16.779Z,99869
2023-01-22T14:24:52.421Z,99865.4
2023-01-22T14:30:29.568Z,99865.3
2023-01-22T14:36:05.446Z,99869.5
2023-01-22T14:41:40.890Z,99868.3
2023-01-22T14:47:17.159Z,99866.7
2023-01-22T14:52:55.717Z,99863.1
2023-01-22T14:58:31.300Z,99865.9
2023-01-22T15:04:09.260Z,99865.1
2023-01-22T15:09:46.128Z,99863.8
2023-01-22T15:15:21.703Z,99863.1
2023-01-22T15:20:57.540Z,99862.5
2023-01-22T15:26:33.253Z,99864
2023-01-22T15:32:25.009Z,99877.9
2023-01-22T15:38:00.841Z,99886.3
2023-01-22T15:43:36.795Z,99891.1
2023-01-22T15:49:34.656Z,99888.2
2023-01-22T15:55:08.357Z,99877
2023-01-22T16:00:43.411Z,99880
2023-01-22T16:06:39.486Z,99883
2023-01-22T16:12:32.200Z,99877.9
2023-01-22T16:18:17.029Z,99873.1
2023-01-22T16:24:08.257Z,99863.2
2023-01-22T16:30:00.733Z,99867.1
2023-01-22T16:35:43.669Z,99864.4
2023-01-22T16:41:26.012Z,99869
2023-01-22T16:47:09.663Z,99864
2023-01-22T16:52:45.254Z,99866.3
2023-01-22T16:58:21.928Z,99868.2
2023-01-22T17:04:01.744Z,99848.9
2023-01-22T17:09:38.661Z,99857.9
2023-01-22T17:15:32.922Z,99845
2023-01-22T17:21:10.416Z,99852.5
2023-01-22T17:27:18.243Z,99851.5
2023-01-22T17:33:08.479Z,99844.1
2023-01-22T17:38:44.945Z,99843.4
2023-01-22T17:44:21.292Z,99845.3
2023-01-22T17:49:56.721Z,99831.9
2023-01-22T17:55:33.900Z,99834.1
2023-01-22T18:01:09.737Z,99831.9
2023-01-22T18:06:45.599Z,99836.8
2023-01-22T18:12:21.431Z,99846.1
2023-01-22T18:17:57.467Z,99851.2
2023-01-22T18:23:33.555Z,99841
2023-01-22T18:29:09.489Z,99847.4
2023-01-22T18:34:45.378Z,99839.9
2023-01-22T18:40:21.150Z,99819.4
2023-01-22T18:45:57.890Z,99814.7
2023-01-22T18:51:34.536Z,99821.4
2023-01-22T18:57:10.644Z,99808.6
2023-01-22T19:02:47.837Z,99803.1
2023-01-22T19:08:23.910Z,99812.1
2023-01-22T19:13:59.190Z,99808.3
2023-01-22T19:19:37.003Z,99813.8
2023-01-22T19:25:13.371Z,99801.4
2023-01-22T19:30:49.393Z,99791.4
2023-01-22T19:36:25.733Z,99787
2023-01-22T19:42:02.341Z,99800.1
2023-01-22T19:47:38.136Z,99800.7
2023-01-22T19:53:14.264Z,99796.3
2023-01-22T19:58:49.650Z,99802.1
2023-01-22T20:04:26.273Z,99793.6
2023-01-22T20:10:06.563Z,99787.1
2023-01-22T20:16:04.598Z,99796.5
2023-01-22T20:21:40.424Z,99791.9
2023-01-22T20:27:16.592Z,99788.1
2023-01-22T20:33:00.030Z,99794.7
2023-01-22T20:38:35.450Z,99793.6
2023-01-22T20:44:13.743Z,99798.3
2023-01-22T20:49:49.946Z,99801.7
2023-01-22T20:55:25.530Z,99808
2023-01-22T21:01:01.538Z,99806.7
2023-01-22T21:06:45.248Z,99809.6
2023-01-22T21:12:21.167Z,99801.1
2023-01-22T21:17:57.117Z,99793
2023-01-22T21:23:33.936Z,99784.7
2023-01-22T21:29:15.592Z,99795.7
2023-01-22T21:34:51.778Z,99804.5
2023-01-22T21:40:34.642Z,99807.9
2023-01-22T21:46:11.347Z,99812.4
2023-01-22T21:51:46.815Z,99808.7
2023-01-22T21:57:25.036Z,99811
2023-01-22T22:03:00.517Z,99811.8
2023-01-22T22:08:36.586Z,99814.7
2023-01-22T22:14:21.163Z,99818.1
2023-01-22T22:19:56.449Z,99816.3
2023-01-22T22:25:31.909Z,99823.9
2023-01-22T22:31:09.238Z,99837.5
2023-01-22T22:36:46.231Z,99840.3
2023-01-22T22:42:22.917Z,99846.1
2023-01-22T22:47:58.296Z,99853.4
2023-01-22T22:53:40.000Z,99855.9
2023-01-22T22:59:16.195Z,99858.4
2023-01-22T23:04:51.834Z,99856.4
2023-01-22T23:10:27.632Z,99862
2023-01-22T23:16:04.770Z,99854
2023-01-22T23:21:41.029Z,99853.4
2023-01-22T23:27:16.792Z,99854.8
2023-01-22T23:32:53.312Z,99854.1
2023-01-22T23:38:29.283Z,99852.6
2023-01-22T23:44:04.609Z,99857.9
2023-01-22T23:49:40.635Z,99858.6
2023-01-22T23:55:17.648Z,99874.3
